sensor_id;sensor_type;location;lat;lon;timestamp;temperature;humidity
4615;DHT22;2320;51.362;6.946;2024-03-02T00:00:08;8.90;99.90
4615;DHT22;2320;51.362;6.946;2024-03-02T00:02:43;9.00;99.90
4615;DHT22;2320;51.362;6.946;2024-03-02T00:05:18;9.00;99.90
4615;DHT22;2320;51.362;6.946;2024-03-02T00:07:46;8.90;99.90
4615;DHT22;2320;51.362;6.946;2024-03-02T00:10:20;8.90;99.90
4615;DHT22;2320;51.362;6.946;2024-03-02T00:12:48;8.90;99.90
4615;DHT22;2320;51.362;6.946;2024-03-02T00:15:45;9.00;99.90
4615;DHT22;2320;51.362;6.946;2024-03-02T00:18:13;9.00;99.90
4615;DHT22;2320;51.362;6.946;2024-03-02T00:20:40;9.00;99.90
4615;DHT22;2320;51.362;6.946;2024-03-02T00:23:07;9.00;99.90
4615;DHT22;2320;51.362;6.946;2024-03-02T00:25:49;9.00;99.90
4615;DHT22;2320;51.362;6.946;2024-03-02T00:28:25;9.00;99.90
4615;DHT22;2320;51.362;6.946;2024-03-02T00:33:24;9.10;99.90
4615;DHT22;2320;51.362;6.946;2024-03-02T00:35:51;9.10;99.90
4615;DHT22;2320;51.362;6.946;2024-03-02T00:38:17;9.10;99.90
4615;DHT22;2320;51.362;6.946;2024-03-02T00:40:43;9.10;99.90
4615;DHT22;2320;51.362;6.946;2024-03-02T00:46:03;9.30;99.90
4615;DHT22;2320;51.362;6.946;2024-03-02T00:48:29;9.30;99.90
4615;DHT22;2320;51.362;6.946;2024-03-02T00:50:57;9.30;99.90
4615;DHT22;2320;51.362;6.946;2024-03-02T00:53:26;9.40;99.90
4615;DHT22;2320;51.362;6.946;2024-03-02T00:55:52;9.40;99.90
4615;DHT22;2320;51.362;6.946;2024-03-02T00:58:18;9.40;99.90
4615;DHT22;2320;51.362;6.946;2024-03-02T01:00:44;9.50;99.90
4615;DHT22;2320;51.362;6.946;2024-03-02T01:03:09;9.50;99.90
4615;DHT22;2320;51.362;6.946;2024-03-02T01:05:36;9.50;99.90
4615;DHT22;2320;51.362;6.946;2024-03-02T01:08:02;9.60;99.90
4615;DHT22;2320;51.362;6.946;2024-03-02T01:10:27;9.70;99.90
4615;DHT22;2320;51.362;6.946;2024-03-02T01:12:53;9.70;99.90
4615;DHT22;2320;51.362;6.946;2024-03-02T01:15:18;9.70;99.90
4615;DHT22;2320;51.362;6.946;2024-03-02T01:17:44;9.70;99.90
4615;DHT22;2320;51.362;6.946;2024-03-02T01:20:10;9.70;99.90
4615;DHT22;2320;51.362;6.946;2024-03-02T01:22:36;9.70;99.90
4615;DHT22;2320;51.362;6.946;2024-03-02T01:25:03;9.70;99.90
4615;DHT22;2320;51.362;6.946;2024-03-02T01:27:28;9.80;99.90
4615;DHT22;2320;51.362;6.946;2024-03-02T01:29:54;9.90;99.90
4615;DHT22;2320;51.362;6.946;2024-03-02T01:32:20;9.90;99.90
4615;DHT22;2320;51.362;6.946;2024-03-02T01:34:45;9.80;99.90
4615;DHT22;2320;51.362;6.946;2024-03-02T01:37:11;9.80;99.90
4615;DHT22;2320;51.362;6.946;2024-03-02T01:39:37;9.80;99.90
4615;DHT22;2320;51.362;6.946;2024-03-02T01:42:02;9.80;99.90
4615;DHT22;2320;51.362;6.946;2024-03-02T01:44:28;9.70;99.90
4615;DHT22;2320;51.362;6.946;2024-03-02T01:46:54;9.60;99.90
4615;DHT22;2320;51.362;6.946;2024-03-02T01:49:19;9.60;99.90
4615;DHT22;2320;51.362;6.946;2024-03-02T01:51:45;9.60;99.90
4615;DHT22;2320;51.362;6.946;2024-03-02T01:54:11;9.50;99.90
4615;DHT22;2320;51.362;6.946;2024-03-02T01:56:37;9.40;99.90
4615;DHT22;2320;51.362;6.946;2024-03-02T01:59:02;9.40;99.90
4615;DHT22;2320;51.362;6.946;2024-03-02T02:01:28;9.40;99.90
4615;DHT22;2320;51.362;6.946;2024-03-02T02:03:54;9.40;99.90
4615;DHT22;2320;51.362;6.946;2024-03-02T02:06:20;9.30;99.90
4615;DHT22;2320;51.362;6.946;2024-03-02T02:08:46;9.30;99.90
4615;DHT22;2320;51.362;6.946;2024-03-02T02:11:15;9.40;99.90
4615;DHT22;2320;51.362;6.946;2024-03-02T02:13:40;9.30;99.90
4615;DHT22;2320;51.362;6.946;2024-03-02T02:16:09;9.40;99.90
4615;DHT22;2320;51.362;6.946;2024-03-02T02:18:35;9.40;99.90
4615;DHT22;2320;51.362;6.946;2024-03-02T02:21:01;9.50;99.90
4615;DHT22;2320;51.362;6.946;2024-03-02T02:23:27;9.50;99.90
4615;DHT22;2320;51.362;6.946;2024-03-02T02:25:52;9.60;99.90
4615;DHT22;2320;51.362;6.946;2024-03-02T02:28:18;9.70;99.90
4615;DHT22;2320;51.362;6.946;2024-03-02T02:30:44;9.70;99.90
4615;DHT22;2320;51.362;6.946;2024-03-02T02:33:09;9.80;99.90
4615;DHT22;2320;51.362;6.946;2024-03-02T02:35:35;9.80;99.90
4615;DHT22;2320;51.362;6.946;2024-03-02T02:38:01;9.80;99.90
4615;DHT22;2320;51.362;6.946;2024-03-02T02:40:27;9.80;99.90
4615;DHT22;2320;51.362;6.946;2024-03-02T02:42:56;9.90;99.90
4615;DHT22;2320;51.362;6.946;2024-03-02T02:45:21;9.90;99.90
4615;DHT22;2320;51.362;6.946;2024-03-02T02:47:47;9.90;99.90
4615;DHT22;2320;51.362;6.946;2024-03-02T02:50:13;9.90;99.90
4615;DHT22;2320;51.362;6.946;2024-03-02T02:52:40;9.90;99.90
4615;DHT22;2320;51.362;6.946;2024-03-02T02:55:08;9.90;99.90
4615;DHT22;2320;51.362;6.946;2024-03-02T02:57:34;9.80;99.90
4615;DHT22;2320;51.362;6.946;2024-03-02T03:00:22;9.80;99.90
4615;DHT22;2320;51.362;6.946;2024-03-02T03:02:48;9.80;99.90
4615;DHT22;2320;51.362;6.946;2024-03-02T03:05:15;9.90;99.90
4615;DHT22;2320;51.362;6.946;2024-03-02T03:07:41;9.90;99.90
4615;DHT22;2320;51.362;6.946;2024-03-02T03:10:07;9.90;99.90
4615;DHT22;2320;51.362;6.946;2024-03-02T03:12:36;9.90;99.90
4615;DHT22;2320;51.362;6.946;2024-03-02T03:15:03;9.90;99.90
4615;DHT22;2320;51.362;6.946;2024-03-02T03:17:29;9.90;99.90
4615;DHT22;2320;51.362;6.946;2024-03-02T03:19:55;10.00;99.90
4615;DHT22;2320;51.362;6.946;2024-03-02T03:22:21;10.00;99.90
4615;DHT22;2320;51.362;6.946;2024-03-02T03:24:46;9.90;99.90
4615;DHT22;2320;51.362;6.946;2024-03-02T03:27:12;9.90;99.90
4615;DHT22;2320;51.362;6.946;2024-03-02T03:29:38;9.90;99.90
4615;DHT22;2320;51.362;6.946;2024-03-02T03:32:03;9.90;99.90
4615;DHT22;2320;51.362;6.946;2024-03-02T03:34:32;9.90;99.90
4615;DHT22;2320;51.362;6.946;2024-03-02T03:36:58;9.80;99.90
4615;DHT22;2320;51.362;6.946;2024-03-02T03:39:23;9.90;99.90
4615;DHT22;2320;51.362;6.946;2024-03-02T03:41:49;9.90;99.90
4615;DHT22;2320;51.362;6.946;2024-03-02T03:44:15;9.90;99.90
4615;DHT22;2320;51.362;6.946;2024-03-02T03:46:41;9.90;99.90
4615;DHT22;2320;51.362;6.946;2024-03-02T03:49:06;9.80;99.90
4615;DHT22;2320;51.362;6.946;2024-03-02T03:51:33;9.90;99.90
4615;DHT22;2320;51.362;6.946;2024-03-02T03:53:58;9.80;99.90
4615;DHT22;2320;51.362;6.946;2024-03-02T03:56:24;9.80;99.90
4615;DHT22;2320;51.362;6.946;2024-03-02T03:58:50;9.90;99.90
4615;DHT22;2320;51.362;6.946;2024-03-02T04:01:15;9.70;99.90
4615;DHT22;2320;51.362;6.946;2024-03-02T04:03:41;9.70;99.90
4615;DHT22;2320;51.362;6.946;2024-03-02T04:06:07;9.80;99.90
4615;DHT22;2320;51.362;6.946;2024-03-02T04:08:32;9.70;99.90
4615;DHT22;2320;51.362;6.946;2024-03-02T04:10:58;9.80;99.90
4615;DHT22;2320;51.362;6.946;2024-03-02T04:13:23;9.70;99.90
4615;DHT22;2320;51.362;6.946;2024-03-02T04:15:49;9.60;99.90
4615;DHT22;2320;51.362;6.946;2024-03-02T04:18:14;9.50;99.90
4615;DHT22;2320;51.362;6.946;2024-03-02T04:20:40;9.50;99.90
4615;DHT22;2320;51.362;6.946;2024-03-02T04:23:05;9.50;99.90
4615;DHT22;2320;51.362;6.946;2024-03-02T04:25:31;9.40;99.90
4615;DHT22;2320;51.362;6.946;2024-03-02T04:27:56;9.40;99.90
4615;DHT22;2320;51.362;6.946;2024-03-02T04:30:22;9.30;99.90
4615;DHT22;2320;51.362;6.946;2024-03-02T04:32:47;9.30;99.90
4615;DHT22;2320;51.362;6.946;2024-03-02T04:35:14;9.20;99.90
4615;DHT22;2320;51.362;6.946;2024-03-02T04:37:40;9.20;99.90
4615;DHT22;2320;51.362;6.946;2024-03-02T04:40:06;9.00;99.90
4615;DHT22;2320;51.362;6.946;2024-03-02T04:42:35;9.00;99.90
4615;DHT22;2320;51.362;6.946;2024-03-02T04:45:01;9.00;99.90
4615;DHT22;2320;51.362;6.946;2024-03-02T04:47:26;9.00;99.90
4615;DHT22;2320;51.362;6.946;2024-03-02T04:49:52;9.00;99.90
4615;DHT22;2320;51.362;6.946;2024-03-02T04:52:18;9.00;99.90
4615;DHT22;2320;51.362;6.946;2024-03-02T04:54:44;9.00;99.90
4615;DHT22;2320;51.362;6.946;2024-03-02T04:57:28;8.90;99.90
4615;DHT22;2320;51.362;6.946;2024-03-02T04:59:54;8.90;99.90
4615;DHT22;2320;51.362;6.946;2024-03-02T05:02:20;8.80;99.90
4615;DHT22;2320;51.362;6.946;2024-03-02T05:04:45;8.80;99.90
4615;DHT22;2320;51.362;6.946;2024-03-02T05:07:11;8.80;99.90
4615;DHT22;2320;51.362;6.946;2024-03-02T05:09:36;8.70;99.90
4615;DHT22;2320;51.362;6.946;2024-03-02T05:12:02;8.70;99.90
4615;DHT22;2320;51.362;6.946;2024-03-02T05:15:06;8.70;99.90
4615;DHT22;2320;51.362;6.946;2024-03-02T05:17:32;8.70;99.90
4615;DHT22;2320;51.362;6.946;2024-03-02T05:19:58;8.60;99.90
4615;DHT22;2320;51.362;6.946;2024-03-02T05:22:24;8.60;99.90
4615;DHT22;2320;51.362;6.946;2024-03-02T05:24:50;8.50;99.90
4615;DHT22;2320;51.362;6.946;2024-03-02T05:27:15;8.60;99.90
4615;DHT22;2320;51.362;6.946;2024-03-02T05:29:41;8.50;99.90
4615;DHT22;2320;51.362;6.946;2024-03-02T05:32:06;8.40;99.90
4615;DHT22;2320;51.362;6.946;2024-03-02T05:34:32;8.40;99.90
4615;DHT22;2320;51.362;6.946;2024-03-02T05:37:00;8.50;99.90
4615;DHT22;2320;51.362;6.946;2024-03-02T05:39:26;8.50;99.90
4615;DHT22;2320;51.362;6.946;2024-03-02T05:41:51;8.50;99.90
4615;DHT22;2320;51.362;6.946;2024-03-02T05:44:17;8.40;99.90
4615;DHT22;2320;51.362;6.946;2024-03-02T05:46:44;8.30;99.90
4615;DHT22;2320;51.362;6.946;2024-03-02T05:49:09;8.30;99.90
4615;DHT22;2320;51.362;6.946;2024-03-02T05:51:35;8.40;99.90
4615;DHT22;2320;51.362;6.946;2024-03-02T05:54:01;8.30;99.90
4615;DHT22;2320;51.362;6.946;2024-03-02T05:56:26;8.30;99.90
4615;DHT22;2320;51.362;6.946;2024-03-02T05:58:52;8.30;99.90
4615;DHT22;2320;51.362;6.946;2024-03-02T06:01:37;8.30;99.90
4615;DHT22;2320;51.362;6.946;2024-03-02T06:04:03;8.30;99.90
4615;DHT22;2320;51.362;6.946;2024-03-02T06:06:28;8.20;99.90
4615;DHT22;2320;51.362;6.946;2024-03-02T06:08:54;8.20;99.90
4615;DHT22;2320;51.362;6.946;2024-03-02T06:11:20;8.20;99.90
4615;DHT22;2320;51.362;6.946;2024-03-02T06:13:45;8.10;99.90
4615;DHT22;2320;51.362;6.946;2024-03-02T06:16:11;8.10;99.90
4615;DHT22;2320;51.362;6.946;2024-03-02T06:18:37;8.10;99.90
4615;DHT22;2320;51.362;6.946;2024-03-02T06:21:03;8.00;99.90
4615;DHT22;2320;51.362;6.946;2024-03-02T06:23:28;8.10;99.90
4615;DHT22;2320;51.362;6.946;2024-03-02T06:25:54;8.00;99.90
4615;DHT22;2320;51.362;6.946;2024-03-02T06:28:19;8.10;99.90
4615;DHT22;2320;51.362;6.946;2024-03-02T06:30:46;8.00;99.90
4615;DHT22;2320;51.362;6.946;2024-03-02T06:33:11;8.10;99.90
4615;DHT22;2320;51.362;6.946;2024-03-02T06:35:37;8.10;99.90
4615;DHT22;2320;51.362;6.946;2024-03-02T06:38:03;8.10;99.90
4615;DHT22;2320;51.362;6.946;2024-03-02T06:40:29;8.20;99.90
4615;DHT22;2320;51.362;6.946;2024-03-02T06:42:54;8.10;99.90
4615;DHT22;2320;51.362;6.946;2024-03-02T06:45:20;8.20;99.90
4615;DHT22;2320;51.362;6.946;2024-03-02T06:47:45;8.20;99.90
4615;DHT22;2320;51.362;6.946;2024-03-02T06:50:11;8.30;99.90
4615;DHT22;2320;51.362;6.946;2024-03-02T06:52:37;8.30;99.90
4615;DHT22;2320;51.362;6.946;2024-03-02T06:55:02;8.60;99.90
4615;DHT22;2320;51.362;6.946;2024-03-02T06:57:29;9.10;99.90
4615;DHT22;2320;51.362;6.946;2024-03-02T06:59:55;9.50;99.90
4615;DHT22;2320;51.362;6.946;2024-03-02T07:02:24;10.00;99.90
4615;DHT22;2320;51.362;6.946;2024-03-02T07:04:55;10.20;99.90
4615;DHT22;2320;51.362;6.946;2024-03-02T07:07:20;10.30;99.90
4615;DHT22;2320;51.362;6.946;2024-03-02T07:09:46;10.30;99.90
4615;DHT22;2320;51.362;6.946;2024-03-02T07:12:12;10.10;99.90
4615;DHT22;2320;51.362;6.946;2024-03-02T07:14:38;10.60;99.90
4615;DHT22;2320;51.362;6.946;2024-03-02T07:17:33;11.00;99.90
4615;DHT22;2320;51.362;6.946;2024-03-02T07:19:59;11.60;99.90
4615;DHT22;2320;51.362;6.946;2024-03-02T07:22:25;12.20;99.90
4615;DHT22;2320;51.362;6.946;2024-03-02T07:24:50;12.70;99.90
4615;DHT22;2320;51.362;6.946;2024-03-02T07:27:16;13.30;99.90
4615;DHT22;2320;51.362;6.946;2024-03-02T07:29:42;13.30;99.90
4615;DHT22;2320;51.362;6.946;2024-03-02T07:32:09;12.90;99.90
4615;DHT22;2320;51.362;6.946;2024-03-02T07:34:35;12.40;99.90
4615;DHT22;2320;51.362;6.946;2024-03-02T07:37:01;12.30;99.90
4615;DHT22;2320;51.362;6.946;2024-03-02T07:39:27;12.10;99.90
4615;DHT22;2320;51.362;6.946;2024-03-02T07:41:53;12.30;99.90
4615;DHT22;2320;51.362;6.946;2024-03-02T07:44:19;12.70;99.90
4615;DHT22;2320;51.362;6.946;2024-03-02T07:46:46;13.60;99.90
4615;DHT22;2320;51.362;6.946;2024-03-02T07:49:12;14.50;99.90
4615;DHT22;2320;51.362;6.946;2024-03-02T07:51:42;15.60;99.90
4615;DHT22;2320;51.362;6.946;2024-03-02T07:54:07;16.50;99.90
4615;DHT22;2320;51.362;6.946;2024-03-02T07:56:33;16.00;99.90
4615;DHT22;2320;51.362;6.946;2024-03-02T07:58:59;15.20;99.90
4615;DHT22;2320;51.362;6.946;2024-03-02T08:01:33;15.40;99.90
4615;DHT22;2320;51.362;6.946;2024-03-02T08:04:02;15.40;99.90
4615;DHT22;2320;51.362;6.946;2024-03-02T08:06:29;15.80;99.90
4615;DHT22;2320;51.362;6.946;2024-03-02T08:08:56;15.90;99.90
4615;DHT22;2320;51.362;6.946;2024-03-02T08:11:22;16.90;99.90
4615;DHT22;2320;51.362;6.946;2024-03-02T08:13:48;17.80;99.90
4615;DHT22;2320;51.362;6.946;2024-03-02T08:16:17;18.30;99.90
4615;DHT22;2320;51.362;6.946;2024-03-02T08:18:45;17.80;99.90
4615;DHT22;2320;51.362;6.946;2024-03-02T08:21:12;18.20;99.90
4615;DHT22;2320;51.362;6.946;2024-03-02T08:23:38;19.20;99.90
4615;DHT22;2320;51.362;6.946;2024-03-02T08:26:06;20.00;99.90
4615;DHT22;2320;51.362;6.946;2024-03-02T08:28:32;20.50;99.90
4615;DHT22;2320;51.362;6.946;2024-03-02T08:30:58;20.70;99.90
4615;DHT22;2320;51.362;6.946;2024-03-02T08:33:24;20.90;99.90
4615;DHT22;2320;51.362;6.946;2024-03-02T08:35:49;20.80;99.90
4615;DHT22;2320;51.362;6.946;2024-03-02T08:38:15;20.90;99.90
4615;DHT22;2320;51.362;6.946;2024-03-02T08:40:41;21.30;99.90
4615;DHT22;2320;51.362;6.946;2024-03-02T08:43:06;21.30;99.90
4615;DHT22;2320;51.362;6.946;2024-03-02T08:45:32;21.40;99.90
4615;DHT22;2320;51.362;6.946;2024-03-02T08:47:59;22.10;99.90
4615;DHT22;2320;51.362;6.946;2024-03-02T08:50:25;22.80;99.90
4615;DHT22;2320;51.362;6.946;2024-03-02T08:52:50;22.60;99.90
4615;DHT22;2320;51.362;6.946;2024-03-02T08:55:16;21.80;99.90
4615;DHT22;2320;51.362;6.946;2024-03-02T08:57:41;20.80;99.90
4615;DHT22;2320;51.362;6.946;2024-03-02T09:00:07;21.10;99.90
4615;DHT22;2320;51.362;6.946;2024-03-02T09:02:34;21.60;99.90
4615;DHT22;2320;51.362;6.946;2024-03-02T09:04:59;22.00;99.90
4615;DHT22;2320;51.362;6.946;2024-03-02T09:07:25;21.90;99.90
4615;DHT22;2320;51.362;6.946;2024-03-02T09:09:51;20.50;99.90
4615;DHT22;2320;51.362;6.946;2024-03-02T09:12:18;19.80;99.90
4615;DHT22;2320;51.362;6.946;2024-03-02T09:14:44;18.90;99.90
4615;DHT22;2320;51.362;6.946;2024-03-02T09:17:10;19.10;99.90
4615;DHT22;2320;51.362;6.946;2024-03-02T09:19:37;18.70;99.90
4615;DHT22;2320;51.362;6.946;2024-03-02T09:22:02;19.10;99.90
4615;DHT22;2320;51.362;6.946;2024-03-02T09:24:31;19.30;99.90
4615;DHT22;2320;51.362;6.946;2024-03-02T09:26:58;20.30;99.90
4615;DHT22;2320;51.362;6.946;2024-03-02T09:29:23;20.80;99.90
4615;DHT22;2320;51.362;6.946;2024-03-02T09:31:49;21.30;99.90
4615;DHT22;2320;51.362;6.946;2024-03-02T09:34:16;21.10;99.90
4615;DHT22;2320;51.362;6.946;2024-03-02T09:36:42;21.20;99.90
4615;DHT22;2320;51.362;6.946;2024-03-02T09:39:08;20.70;99.90
4615;DHT22;2320;51.362;6.946;2024-03-02T09:41:36;21.10;99.90
4615;DHT22;2320;51.362;6.946;2024-03-02T09:44:02;20.80;99.90
4615;DHT22;2320;51.362;6.946;2024-03-02T09:46:28;20.80;99.90
4615;DHT22;2320;51.362;6.946;2024-03-02T09:48:54;20.50;99.90
4615;DHT22;2320;51.362;6.946;2024-03-02T09:51:20;20.00;99.90
4615;DHT22;2320;51.362;6.946;2024-03-02T09:53:45;20.00;99.90
4615;DHT22;2320;51.362;6.946;2024-03-02T09:56:12;20.40;99.90
4615;DHT22;2320;51.362;6.946;2024-03-02T09:58:38;20.50;99.90
4615;DHT22;2320;51.362;6.946;2024-03-02T10:01:07;20.70;99.90
4615;DHT22;2320;51.362;6.946;2024-03-02T10:03:36;21.00;99.90
4615;DHT22;2320;51.362;6.946;2024-03-02T10:06:24;21.00;99.90
4615;DHT22;2320;51.362;6.946;2024-03-02T10:08:51;20.30;99.90
4615;DHT22;2320;51.362;6.946;2024-03-02T10:14:13;19.10;99.90
4615;DHT22;2320;51.362;6.946;2024-03-02T10:16:41;18.20;99.90
4615;DHT22;2320;51.362;6.946;2024-03-02T10:19:20;17.80;99.90
4615;DHT22;2320;51.362;6.946;2024-03-02T10:21:50;17.20;99.90
4615;DHT22;2320;51.362;6.946;2024-03-02T10:24:17;16.60;99.90
4615;DHT22;2320;51.362;6.946;2024-03-02T10:26:42;16.50;99.90
4615;DHT22;2320;51.362;6.946;2024-03-02T10:29:09;16.40;99.90
4615;DHT22;2320;51.362;6.946;2024-03-02T10:31:37;15.80;99.90
4615;DHT22;2320;51.362;6.946;2024-03-02T10:34:03;15.50;99.90
4615;DHT22;2320;51.362;6.946;2024-03-02T10:36:29;15.10;99.90
4615;DHT22;2320;51.362;6.946;2024-03-02T10:38:56;15.30;99.90
4615;DHT22;2320;51.362;6.946;2024-03-02T10:41:24;15.10;99.90
4615;DHT22;2320;51.362;6.946;2024-03-02T10:43:52;15.10;99.90
4615;DHT22;2320;51.362;6.946;2024-03-02T10:46:22;15.30;99.90
4615;DHT22;2320;51.362;6.946;2024-03-02T10:48:48;15.50;99.90
4615;DHT22;2320;51.362;6.946;2024-03-02T10:51:15;15.50;99.90
4615;DHT22;2320;51.362;6.946;2024-03-02T10:53:40;15.40;99.90
4615;DHT22;2320;51.362;6.946;2024-03-02T10:56:07;15.30;99.90
4615;DHT22;2320;51.362;6.946;2024-03-02T10:58:35;15.40;99.90
4615;DHT22;2320;51.362;6.946;2024-03-02T11:01:05;15.30;99.90
4615;DHT22;2320;51.362;6.946;2024-03-02T11:03:35;15.20;99.90
4615;DHT22;2320;51.362;6.946;2024-03-02T11:06:03;15.10;99.90
4615;DHT22;2320;51.362;6.946;2024-03-02T11:08:34;15.00;99.90
4615;DHT22;2320;51.362;6.946;2024-03-02T11:11:07;15.00;99.90
4615;DHT22;2320;51.362;6.946;2024-03-02T11:13:33;15.00;99.90
4615;DHT22;2320;51.362;6.946;2024-03-02T11:16:05;14.80;99.90
4615;DHT22;2320;51.362;6.946;2024-03-02T11:18:32;14.70;99.90
4615;DHT22;2320;51.362;6.946;2024-03-02T11:20:59;14.70;99.90
4615;DHT22;2320;51.362;6.946;2024-03-02T11:23:35;14.50;99.90
4615;DHT22;2320;51.362;6.946;2024-03-02T11:26:19;14.50;99.90
4615;DHT22;2320;51.362;6.946;2024-03-02T11:28:45;14.50;99.90
4615;DHT22;2320;51.362;6.946;2024-03-02T11:31:11;14.60;99.90
4615;DHT22;2320;51.362;6.946;2024-03-02T11:33:36;14.80;99.90
4615;DHT22;2320;51.362;6.946;2024-03-02T11:36:02;14.70;99.90
4615;DHT22;2320;51.362;6.946;2024-03-02T11:38:30;14.60;99.90
4615;DHT22;2320;51.362;6.946;2024-03-02T11:40:56;14.70;99.90
4615;DHT22;2320;51.362;6.946;2024-03-02T11:43:22;14.70;99.90
4615;DHT22;2320;51.362;6.946;2024-03-02T11:45:57;14.70;99.90
4615;DHT22;2320;51.362;6.946;2024-03-02T11:48:25;14.70;99.90
4615;DHT22;2320;51.362;6.946;2024-03-02T11:50:50;14.70;99.90
4615;DHT22;2320;51.362;6.946;2024-03-02T11:53:17;14.70;99.90
4615;DHT22;2320;51.362;6.946;2024-03-02T11:55:44;14.60;99.90
4615;DHT22;2320;51.362;6.946;2024-03-02T11:58:14;14.50;99.90
4615;DHT22;2320;51.362;6.946;2024-03-02T12:00:40;14.50;99.90
4615;DHT22;2320;51.362;6.946;2024-03-02T12:03:07;14.60;99.90
4615;DHT22;2320;51.362;6.946;2024-03-02T12:05:33;14.70;99.90
4615;DHT22;2320;51.362;6.946;2024-03-02T12:08:03;14.80;99.90
4615;DHT22;2320;51.362;6.946;2024-03-02T12:10:30;14.60;99.90
4615;DHT22;2320;51.362;6.946;2024-03-02T12:12:57;14.50;99.90
4615;DHT22;2320;51.362;6.946;2024-03-02T12:15:27;14.50;99.90
4615;DHT22;2320;51.362;6.946;2024-03-02T12:17:57;14.60;99.90
4615;DHT22;2320;51.362;6.946;2024-03-02T12:20:24;14.60;99.90
4615;DHT22;2320;51.362;6.946;2024-03-02T12:22:53;14.90;99.90
4615;DHT22;2320;51.362;6.946;2024-03-02T12:25:20;15.00;99.90
4615;DHT22;2320;51.362;6.946;2024-03-02T12:27:48;15.00;99.90
4615;DHT22;2320;51.362;6.946;2024-03-02T12:30:16;15.30;99.90
4615;DHT22;2320;51.362;6.946;2024-03-02T12:32:42;15.40;99.90
4615;DHT22;2320;51.362;6.946;2024-03-02T12:35:10;15.50;99.90
4615;DHT22;2320;51.362;6.946;2024-03-02T12:37:44;15.50;99.90
4615;DHT22;2320;51.362;6.946;2024-03-02T12:40:15;15.50;99.90
4615;DHT22;2320;51.362;6.946;2024-03-02T12:42:43;15.40;99.90
4615;DHT22;2320;51.362;6.946;2024-03-02T12:45:09;15.50;99.90
4615;DHT22;2320;51.362;6.946;2024-03-02T12:47:35;15.40;99.90
4615;DHT22;2320;51.362;6.946;2024-03-02T12:50:01;15.60;99.90
4615;DHT22;2320;51.362;6.946;2024-03-02T12:52:27;15.60;99.90
4615;DHT22;2320;51.362;6.946;2024-03-02T12:54:53;15.40;99.90
4615;DHT22;2320;51.362;6.946;2024-03-02T12:57:25;15.40;99.90
4615;DHT22;2320;51.362;6.946;2024-03-02T12:59:52;15.50;99.90
4615;DHT22;2320;51.362;6.946;2024-03-02T13:02:18;15.50;99.90
4615;DHT22;2320;51.362;6.946;2024-03-02T13:04:44;15.40;99.90
4615;DHT22;2320;51.362;6.946;2024-03-02T13:07:13;15.20;99.90
4615;DHT22;2320;51.362;6.946;2024-03-02T13:09:39;15.00;99.90
4615;DHT22;2320;51.362;6.946;2024-03-02T13:12:05;14.90;99.90
4615;DHT22;2320;51.362;6.946;2024-03-02T13:14:35;14.80;99.90
4615;DHT22;2320;51.362;6.946;2024-03-02T13:17:01;14.70;99.90
4615;DHT22;2320;51.362;6.946;2024-03-02T13:19:29;14.80;99.90
4615;DHT22;2320;51.362;6.946;2024-03-02T13:21:56;14.70;99.90
4615;DHT22;2320;51.362;6.946;2024-03-02T13:24:22;14.70;99.90
4615;DHT22;2320;51.362;6.946;2024-03-02T13:26:51;14.70;99.90
4615;DHT22;2320;51.362;6.946;2024-03-02T13:29:21;14.60;99.90
4615;DHT22;2320;51.362;6.946;2024-03-02T13:31:47;14.50;99.90
4615;DHT22;2320;51.362;6.946;2024-03-02T13:34:12;14.60;99.90
4615;DHT22;2320;51.362;6.946;2024-03-02T13:36:38;14.60;99.90
4615;DHT22;2320;51.362;6.946;2024-03-02T13:39:04;14.60;99.90
4615;DHT22;2320;51.362;6.946;2024-03-02T13:41:32;14.50;99.90
4615;DHT22;2320;51.362;6.946;2024-03-02T13:43:58;14.60;99.90
4615;DHT22;2320;51.362;6.946;2024-03-02T13:46:26;14.80;99.90
4615;DHT22;2320;51.362;6.946;2024-03-02T13:48:52;14.80;99.90
4615;DHT22;2320;51.362;6.946;2024-03-02T13:51:18;14.90;99.90
4615;DHT22;2320;51.362;6.946;2024-03-02T13:53:43;15.00;99.90
4615;DHT22;2320;51.362;6.946;2024-03-02T13:56:09;14.90;99.90
4615;DHT22;2320;51.362;6.946;2024-03-02T13:58:35;14.80;99.90
4615;DHT22;2320;51.362;6.946;2024-03-02T14:01:00;14.90;99.90
4615;DHT22;2320;51.362;6.946;2024-03-02T14:03:32;14.90;99.90
4615;DHT22;2320;51.362;6.946;2024-03-02T14:05:58;14.90;99.90
4615;DHT22;2320;51.362;6.946;2024-03-02T14:08:24;15.00;99.90
4615;DHT22;2320;51.362;6.946;2024-03-02T14:10:50;15.10;99.90
4615;DHT22;2320;51.362;6.946;2024-03-02T14:13:15;15.20;99.90
4615;DHT22;2320;51.362;6.946;2024-03-02T14:15:41;14.90;99.90
4615;DHT22;2320;51.362;6.946;2024-03-02T14:18:07;14.90;99.90
4615;DHT22;2320;51.362;6.946;2024-03-02T14:20:35;15.00;99.90
4615;DHT22;2320;51.362;6.946;2024-03-02T14:23:01;15.10;99.90
4615;DHT22;2320;51.362;6.946;2024-03-02T14:25:28;15.20;99.90
4615;DHT22;2320;51.362;6.946;2024-03-02T14:27:57;15.10;99.90
4615;DHT22;2320;51.362;6.946;2024-03-02T14:30:23;15.10;99.90
4615;DHT22;2320;51.362;6.946;2024-03-02T14:32:49;15.20;99.90
4615;DHT22;2320;51.362;6.946;2024-03-02T14:35:14;15.40;99.90
4615;DHT22;2320;51.362;6.946;2024-03-02T14:37:40;15.70;99.90
4615;DHT22;2320;51.362;6.946;2024-03-02T14:40:07;15.60;99.90
4615;DHT22;2320;51.362;6.946;2024-03-02T14:42:35;15.70;99.90
4615;DHT22;2320;51.362;6.946;2024-03-02T14:45:01;15.80;99.90
4615;DHT22;2320;51.362;6.946;2024-03-02T14:47:29;16.00;99.90
4615;DHT22;2320;51.362;6.946;2024-03-02T14:49:56;15.90;99.90
4615;DHT22;2320;51.362;6.946;2024-03-02T14:52:22;15.90;99.90
4615;DHT22;2320;51.362;6.946;2024-03-02T14:54:48;15.80;99.90
4615;DHT22;2320;51.362;6.946;2024-03-02T14:57:13;15.60;99.90
4615;DHT22;2320;51.362;6.946;2024-03-02T14:59:39;15.50;99.90
4615;DHT22;2320;51.362;6.946;2024-03-02T15:02:06;15.50;99.90
4615;DHT22;2320;51.362;6.946;2024-03-02T15:04:32;15.40;99.90
4615;DHT22;2320;51.362;6.946;2024-03-02T15:06:58;15.20;99.90
4615;DHT22;2320;51.362;6.946;2024-03-02T15:09:23;15.10;99.90
4615;DHT22;2320;51.362;6.946;2024-03-02T15:11:49;15.00;99.90
4615;DHT22;2320;51.362;6.946;2024-03-02T15:14:14;14.90;99.90
4615;DHT22;2320;51.362;6.946;2024-03-02T15:16:40;14.90;99.90
4615;DHT22;2320;51.362;6.946;2024-03-02T15:19:07;14.90;99.90
4615;DHT22;2320;51.362;6.946;2024-03-02T15:21:33;14.90;99.90
4615;DHT22;2320;51.362;6.946;2024-03-02T15:23:58;14.80;99.90
4615;DHT22;2320;51.362;6.946;2024-03-02T15:26:24;14.80;99.90
4615;DHT22;2320;51.362;6.946;2024-03-02T15:28:50;14.70;99.90
4615;DHT22;2320;51.362;6.946;2024-03-02T15:31:15;14.80;99.90
4615;DHT22;2320;51.362;6.946;2024-03-02T15:33:42;14.70;99.90
4615;DHT22;2320;51.362;6.946;2024-03-02T15:36:08;14.70;99.90
4615;DHT22;2320;51.362;6.946;2024-03-02T15:38:34;14.70;99.90
4615;DHT22;2320;51.362;6.946;2024-03-02T15:41:03;14.70;99.90
4615;DHT22;2320;51.362;6.946;2024-03-02T15:43:28;14.80;99.90
4615;DHT22;2320;51.362;6.946;2024-03-02T15:45:56;14.80;99.90
4615;DHT22;2320;51.362;6.946;2024-03-02T15:48:22;14.80;99.90
4615;DHT22;2320;51.362;6.946;2024-03-02T15:50:49;14.80;99.90
4615;DHT22;2320;51.362;6.946;2024-03-02T15:53:16;14.80;99.90
4615;DHT22;2320;51.362;6.946;2024-03-02T15:55:41;14.70;99.90
4615;DHT22;2320;51.362;6.946;2024-03-02T15:58:07;14.70;99.90
4615;DHT22;2320;51.362;6.946;2024-03-02T16:00:32;14.70;99.90
4615;DHT22;2320;51.362;6.946;2024-03-02T16:02:58;14.60;99.90
4615;DHT22;2320;51.362;6.946;2024-03-02T16:05:24;14.60;99.90
4615;DHT22;2320;51.362;6.946;2024-03-02T16:07:49;14.60;99.90
4615;DHT22;2320;51.362;6.946;2024-03-02T16:10:15;14.60;99.90
4615;DHT22;2320;51.362;6.946;2024-03-02T16:12:41;14.60;99.90
4615;DHT22;2320;51.362;6.946;2024-03-02T16:15:07;14.60;99.90